This is the latest recevied weather packets stored in our database for station/object YD2CLX-15. If no packets are shown the sender has not sent any weather packets the latest 10 day(s).
| Time | Temp. | Humidity | Pressure | Rain* | Wind** | Luminosity | Snow |
|---|---|---|---|---|---|---|---|
| 1788658239 | 15.56° C | 75% | 1019 hPa | 0 mm | - | - | - |
| 1788656439 | 17.78° C | 75% | 1019 hPa | 0 mm | - | - | - |
| 1788654638 | 11.67° C | 86% | 1019 hPa | 0 mm | - | - | - |
| 1788653739 | 12.78° C | 86% | 1018 hPa | 0 mm | - | - | - |
| 1788650138 | 10° C | 89% | 1018 hPa | 0 mm | - | - | - |
| 1788642939 | 13.89° C | 86% | 1017 hPa | 0 mm | - | - | - |
| 1788642039 | 10° C | 86% | 1017 hPa | 0 mm | - | - | - |
| 1788636638 | 12.22° C | 83% | 1017 hPa | 0 mm | - | - | - |
| 1788635738 | 13.33° C | 83% | 1017 hPa | 0 mm | - | - | - |
| 1788634838 | 14.44° C | 83% | 1017 hPa | 0 mm | - | - | - |
| 1788633939 | 10.56° C | 83% | 1017 hPa | 0 mm | - | - | - |
| 1788633038 | 11.67° C | 83% | 1017 hPa | 0 mm | - | - | - |
| 1788632138 | 12.78° C | 83% | 1017 hPa | 0 mm | - | - | - |
| 1788630339 | 15° C | 83% | 1017 hPa | 0 mm | - | - | - |
| 1788629438 | 11.67° C | 83% | 1017 hPa | 0 mm | - | - | - |
| 1788628538 | 12.78° C | 83% | 1018 hPa | 0 mm | - | - | - |
| 1788627638 | 13.89° C | 83% | 1018 hPa | 0 mm | - | - | - |
| 1788625839 | 11.67° C | 85% | 1018 hPa | 0 mm | - | - | - |
| 1788624938 | 12.78° C | 85% | 1018 hPa | 0 mm | - | - | - |
| 1788621339 | 12.22° C | 85% | 1018 hPa | 0 mm | - | - | - |
| 1788620439 | 13.33° C | 85% | 1019 hPa | 0 mm | - | - | - |
| 1788618638 | 15.56° C | 85% | 1019 hPa | 0 mm | - | - | - |
| 1788617739 | 9.44° C | 83% | 1018 hPa | 0 mm | - | - | - |
| 1788616838 | 10.56° C | 83% | 1019 hPa | 0 mm | - | - | - |
| 1788615938 | 11.67° C | 83% | 1019 hPa | 0 mm | - | - | - |
* Rain latest hour (hover to see other rain measurements)
** Current wind speed in m/s (hover to see current wind gust speed)